x

Cape Elizabeth- 45nm Nw Of Aberdeen, Wa (46041) Wave Buoy

8:50pm - Fri 3rd Jul 2015 All times are PDT. -7 hours from GMT.

  • Sig Wave height 6.2ft
  • Swell Direction
  • Peak Period 8s
  • Average Period 6s
  • Wind
    13mph, 18mph gusts
  • Sea Temp 58°f
  • 空気 Temp 59°f
  • Sea Pressure 1012.9mb
  • Cape Elizabeth- 45nm Nw Of Aberdeen, Wa
  • Cape Elizabeth- 45nm Nw Of Aberdeen, Wa

More Historic Weather Station data

Upgrade to MSW Pro to gain access to the past 30 days of data for over 8000 Wavebouys and Weather Stations around the globe.

Join Pro

Comparision Forecast

View Surf forecast
   
Fri 07/03 8:50pm 6ft 8s 6s 13 18 mph 1012.9mb 58f 59f
7:50pm 6ft 7s 6s 16 20 mph 1012.9mb 58f 59f
6:50pm 6ft 8s 6s 16 20 mph 1013.2mb 58f 59f
5:50pm 6ft 8s 6s 18 20 mph 1013.4mb 57f 59f
4:50pm 6.5ft 8s 6s 18 22 mph 1013.9mb 57f 59f
3:50pm 6ft 8s 6s 16 20 mph 1014.4mb 58f 59f
2:50pm 6ft 8s 6s 13 18 mph 1014.8mb 58f 60f
1:50pm 6ft 8s 6s 11 13 mph 1015.3mb 58f 60f
12:50pm 6ft 8s 6s 9 11 mph 1015.4mb 58f 59f
11:50am 6.5ft 8s 6s 11 13 mph 1015.5mb 58f 59f
10:50am 6.5ft 8s 6s 7 9 mph 1015.9mb 58f 59f
9:50am 7ft 8s 6s 7 9 mph 1016.1mb 57f 59f
8:50am 6ft 8s 6s 9
mph
1016mb 57f 59f
7:50am 7ft 8s 7s 7 9 mph 1015.8mb 57f 58f
6:50am 7ft 8s 7s 9
mph
1015.5mb 57f 58f
5:50am 7ft 9s 7s 7 9 mph 1015.2mb 57f 58f
4:50am 7.5ft 8s 7s 9 11 mph 1015.1mb 57f 58f
3:50am 7ft 8s 7s 11 13 mph 1014.8mb 57f 58f
2:50am 7.5ft 8s 7s 13
mph
1014.8mb 57f 58f
1:50am 6.5ft 8s 6s 11 13 mph 1014.9mb 57f 58f
12:50am 7ft 8s 6s 13 16 mph 1015.1mb 57f 59f
Thu 07/02 11:50pm 6.5ft 8s 6s 13 18 mph 1015.3mb 57f 59f
10:50pm 6ft 8s 6s 16 18 mph 1015.4mb 58f 59f
9:50pm 5.5ft 8s 5s 18 20 mph 1015.3mb 58f 59f
8:50pm 5.5ft 7s 5s 18 20 mph 1015.3mb 58f 59f
7:50pm 5.5ft 8s 5s 18 22 mph 1015.4mb 58f 59f
6:50pm 5ft 8s 6s 18 20 mph 1015.9mb 58f 60f
5:50pm 5ft 8s 5s 16 20 mph 1016.1mb 58f 60f
4:50pm 5ft 8s 5s 16 20 mph 1016.4mb 58f 60f
3:50pm 5ft 8s 6s 16 18 mph 1016.9mb 58f 60f
2:50pm 5ft 8s 6s 13 16 mph 1017.1mb 58f 60f
1:50pm 6ft 8s 6s 11 13 mph 1017.5mb 58f 60f
12:50pm 6ft 8s 6s 9 11 mph 1017.4mb 58f 59f
11:50am 6ft 7s 6s 11 13 mph 1017.3mb 58f 59f
10:50am 7ft 8s 7s 7 9 mph 1017.6mb 58f 58f
9:50am 6.5ft 8s 6s 9
mph
1017.4mb 58f 59f
8:50am 5.5ft 8s 6s 11 13 mph 1017.3mb 57f 59f
7:50am 6ft 8s 6s 11 13 mph 1017.2mb 57f 59f
6:50am 5.5ft 8s 6s 9 11 mph 1016.9mb 57f 58f
5:50am 5ft 8s 6s 11
mph
1016.6mb 57f 58f
4:50am 5ft 8s 6s 13
mph
1016mb 57f 58f
3:50am 5ft 8s 6s 11
mph
1016.1mb 57f 58f
2:50am 5ft 7s 6s 11 13 mph 1015.5mb 57f 58f
1:50am 5ft 8s 5s 13 16 mph 1015.6mb 57f 58f
12:50am 5ft 7s 6s 16 18 mph 1015.4mb 57f 58f
Wed 07/01 11:50pm 5ft 7s 6s 13 16 mph 1015.4mb 57f 58f
10:50pm 4.5ft 8s 5s 11 13 mph 1015.5mb 57f 58f
9:50pm 4.5ft 8s 5s 13 16 mph 1015.5mb 58f 59f
8:50pm 4.5ft 8s 5s 16 20 mph 1015.4mb 58f 59f
7:50pm 4.5ft 8s 5s 16 18 mph 1015.5mb 58f 60f
6:50pm 4.5ft 8s 6s 16 18 mph 1015.6mb 59f 60f
5:50pm 4.5ft 8s 6s 11 13 mph 1015.9mb 58f 60f
4:50pm 5ft 8s 6s 13
mph
1016.1mb 59f 60f
3:50pm 5ft 8s 6s 13
mph
1016.5mb 59f 60f
2:50pm 5ft 8s 6s 9 11 mph 1016.9mb 60f 60f
1:50pm 5ft 8s 6s 9
mph
1017mb 60f 60f
12:50pm 6ft 9s 7s 7
mph
1017.5mb 60f 60f
11:50am 6ft 9s 7s 2 4 mph 1017.6mb 58f 59f
10:50am 6.5ft 8s 7s  -  2 mph 1017.7mb 58f 59f
9:50am 7ft 9s 7s 2
mph
1017.8mb 57f 56f
8:50am 7ft 8s 7s 2 4 mph 1017.9mb 57f 56f
7:50am 7ft 9s 7s 4
mph
1018mb 57f 56f
6:50am 7ft 9s 7s  -  2 mph 1018.1mb 56f 57f
5:50am 6.5ft 9s 7s 2 4 mph 1017.8mb 56f 57f
4:50am 7ft 8s 7s 4 7 mph 1017.7mb 56f 57f
3:50am 6ft 8s 6s 9 11 mph 1017.6mb 56f 57f
2:50am 6.5ft 8s 6s 11 13 mph 1017.9mb 56f 57f
1:50am 5.5ft 8s 6s 11 13 mph 1018.4mb 57f 58f
12:50am 6ft 8s 6s 11 13 mph 1018.5mb 57f 58f
Tue 06/30 11:50pm 5ft 8s 6s 13 16 mph 1019.1mb 57f 58f
10:50pm 5ft 7s 6s 13 16 mph 1019.2mb 58f 58f
9:50pm 5ft 7s 5s 13 16 mph 1019.1mb 58f 58f
8:50pm 4.5ft 7s 5s 18 20 mph 1018.9mb 58f 59f
7:50pm 4.5ft 7s 5s 18 20 mph 1019mb 58f 59f
6:50pm 4.5ft 7s 5s 18 20 mph 1019.6mb 58f 59f
5:50pm 4.5ft 7s 5s 18 20 mph 1019.8mb 58f 59f
4:50pm 4.5ft 7s 5s 16 18 mph 1020mb 58f 59f
3:50pm 3.5ft 7s 5s 18 20 mph 1020.3mb 58f 58f
2:50pm 3.5ft 15s 5s 16 18 mph 1020.9mb 58f 58f
1:50pm 3.5ft 15s 5s 16 18 mph 1020.9mb 58f 58f
12:50pm 3.5ft 15s 6s 13 16 mph 1021.1mb 58f 58f
11:50am 3ft 8s 5s 9
mph
1021.1mb 58f 58f
10:50am 3ft 15s 6s 7 9 mph 1021.1mb 57f 58f
9:50am 3.5ft 15s 6s 9 11 mph 1021mb 57f 57f
8:50am 3.5ft 6s 6s 9 11 mph 1020.7mb 57f 57f
7:50am 3ft 15s 6s 9 11 mph 1020.6mb 57f 56f
6:50am 3ft 15s 6s 9 11 mph 1020.5mb 57f 56f
5:50am 2.5ft 15s 7s 7 9 mph 1020.2mb 56f 56f
4:50am 2.5ft 15s 7s 4 7 mph 1019.7mb 56f 57f